Time;durP1;ratioP1;P1;durP2;ratioP2;P2;SDS_P1;SDS_P2;PMS_P1;PMS_P2;Temp;Humidity;BMP_temperature;BMP_pressure;BME280_temperature;BME280_humidity;BME280_pressure;Samples;Min_cycle;Max_cycle;Signal;HPM_P1;HPM_P2
2023/01/14 00:01:08;;;;;;;29.40;5.03;;;6.80;99.90;;;;;;5116389;28;20053;-41
2023/01/14 00:03:34;;;;;;;26.77;5.55;;;6.90;99.90;;;;;;5134721;27;20452;-41
2023/01/14 00:06:00;;;;;;;28.30;4.85;;;7.00;99.90;;;;;;5134612;28;20117;-41
2023/01/14 00:08:30;;;;;;;28.80;4.85;;;7.00;99.90;;;;;;5134876;28;20043;-41
2023/01/14 00:10:59;;;;;;;27.83;4.90;;;7.00;99.90;;;;;;5134627;28;20046;-42
2023/01/14 00:13:25;;;;;;;27.23;4.72;;;6.90;99.90;;;;;;5135409;28;20039;-42
2023/01/14 00:15:54;;;;;;;24.27;4.70;;;6.90;99.90;;;;;;5116515;28;20085;-41
2023/01/14 00:18:20;;;;;;;30.10;4.53;;;6.90;99.90;;;;;;5134528;28;20050;-41
2023/01/14 00:21:00;;;;;;;24.52;3.65;;;6.80;99.90;;;;;;5134442;28;20050;-41
2023/01/14 00:23:26;;;;;;;24.27;3.58;;;6.70;99.90;;;;;;5134477;28;20508;-40
2023/01/14 00:25:52;;;;;;;29.98;5.78;;;6.60;99.90;;;;;;5134929;28;20047;-41
2023/01/14 00:28:18;;;;;;;38.13;6.50;;;6.60;99.90;;;;;;5134433;28;20054;-39
2023/01/14 00:30:44;;;;;;;28.35;5.22;;;6.60;99.90;;;;;;5099857;28;20039;-39
2023/01/14 00:33:10;;;;;;;30.67;6.15;;;6.60;98.30;;;;;;5134659;28;20491;-40
2023/01/14 00:35:35;;;;;;;26.90;4.22;;;6.60;99.90;;;;;;5134361;28;20150;-39
2023/01/14 00:38:01;;;;;;;28.70;5.10;;;6.60;54.40;;;;;;5134306;28;20068;-39
2023/01/14 00:40:27;;;;;;;30.45;4.25;;;6.40;99.90;;;;;;5134203;28;20047;-38
2023/01/14 00:42:52;;;;;;;21.33;3.28;;;6.40;99.90;;;;;;5133876;28;20051;-39
2023/01/14 00:45:18;;;;;;;26.48;5.25;;;6.30;99.90;;;;;;5134535;28;20062;-38
2023/01/14 00:47:44;;;;;;;26.52;5.35;;;6.30;99.90;;;;;;5099233;28;20541;-39
2023/01/14 00:50:11;;;;;;;40.13;6.25;;;6.30;99.90;;;;;;5134771;28;20039;-38
2023/01/14 00:52:37;;;;;;;29.20;5.43;;;6.30;99.90;;;;;;5116485;28;20082;-38
2023/01/14 00:55:02;;;;;;;27.98;4.50;;;6.50;99.90;;;;;;5116922;28;20081;-38
2023/01/14 00:57:28;;;;;;;24.38;4.28;;;6.50;99.90;;;;;;5115959;28;20043;-39
2023/01/14 00:59:54;;;;;;;30.73;4.32;;;6.50;49.40;;;;;;5134044;28;20074;-39
2023/01/14 01:02:19;;;;;;;21.35;4.90;;;6.50;99.90;;;;;;5133794;28;20054;-39
2023/01/14 01:04:45;;;;;;;23.23;5.10;;;6.60;31.10;;;;;;5134615;28;20050;-40
2023/01/14 01:07:11;;;;;;;20.10;4.35;;;6.60;49.80;;;;;;5134075;28;20092;-39
2023/01/14 01:09:36;;;;;;;25.90;4.07;;;6.80;72.70;;;;;;5134105;28;20050;-39
2023/01/14 01:12:02;;;;;;;26.20;3.80;;;6.80;80.00;;;;;;5115855;28;20431;-40
2023/01/14 01:14:28;;;;;;;24.52;4.47;;;6.90;16.40;;;;;;5134080;27;20562;-41
2023/01/14 01:16:54;;;;;;;21.67;3.92;;;7.00;1.00;;;;;;5136852;27;20129;-41
2023/01/14 01:19:19;;;;;;;25.88;5.55;;;7.00;1.00;;;;;;5138423;27;20047;-41
2023/01/14 01:21:45;;;;;;;18.08;3.85;;;7.00;1.00;;;;;;5138062;27;20516;-40
2023/01/14 01:24:11;;;;;;;25.48;4.20;;;7.10;1.00;;;;;;5137519;27;20119;-41
2023/01/14 01:26:37;;;;;;;32.10;4.38;;;7.10;99.90;;;;;;5137485;27;20047;-41
2023/01/14 01:29:02;;;;;;;33.10;4.38;;;7.00;1.00;;;;;;5137435;27;20126;-41
2023/01/14 01:31:28;;;;;;;22.25;4.10;;;7.00;99.90;;;;;;5137414;27;20039;-41
2023/01/14 01:33:54;;;;;;;23.48;3.75;;;7.00;1.00;;;;;;5137351;27;20043;-40
2023/01/14 01:36:25;;;;;;;26.08;5.72;;;7.00;1.00;;;;;;5137308;27;20082;-41
2023/01/14 01:38:51;;;;;;;32.40;4.25;;;7.00;1.00;;;;;;5137281;27;20055;-41
2023/01/14 01:41:20;;;;;;;23.92;5.05;;;7.00;1.00;;;;;;5137444;27;20067;-41
2023/01/14 01:44:27;;;;;;;23.70;3.70;;;7.00;1.00;;;;;;5136881;27;20510;-41
2023/01/14 01:46:53;;;;;;;34.85;4.05;;;7.00;1.00;;;;;;5137663;27;20051;-41
2023/01/14 01:49:33;;;;;;;25.70;4.38;;;6.90;1.00;;;;;;5137098;27;20047;-41
2023/01/14 01:52:24;;;;;;;30.13;4.70;;;6.90;1.00;;;;;;5137908;27;20043;-41
2023/01/14 01:55:19;;;;;;;27.75;4.13;;;6.80;99.90;;;;;;5119201;27;20043;-41
2023/01/14 01:57:51;;;;;;;24.58;3.78;;;6.80;99.90;;;;;;5134850;27;20063;-41
2023/01/14 02:00:17;;;;;;;19.77;4.20;;;6.70;1.00;;;;;;5136822;27;20055;-41
2023/01/14 02:02:44;;;;;;;26.63;4.00;;;6.60;99.90;;;;;;5137084;27;20047;-41
2023/01/14 02:05:11;;;;;;;25.13;3.33;;;6.60;1.00;;;;;;5136735;27;20103;-41
2023/01/14 02:07:36;;;;;;;27.27;4.50;;;6.70;99.90;;;;;;5137253;27;20380;-41
2023/01/14 02:10:05;;;;;;;23.33;3.95;;;6.70;1.00;;;;;;5136692;27;20050;-41
2023/01/14 02:13:00;;;;;;;26.35;4.78;;;6.70;1.00;;;;;;5136673;27;20481;-41
2023/01/14 02:15:44;;;;;;;17.83;3.15;;;6.80;99.90;;;;;;5136615;27;20076;-41
2023/01/14 02:18:21;;;;;;;33.35;4.93;;;6.90;99.90;;;;;;5136520;27;20054;-41
2023/01/14 02:21:01;;;;;;;34.03;5.45;;;7.00;99.90;;;;;;5136981;27;20039;-41
2023/01/14 02:23:33;;;;;;;23.17;4.05;;;7.00;1.00;;;;;;5118336;27;20550;-41
2023/01/14 02:26:08;;;;;;;27.48;4.28;;;7.00;99.90;;;;;;5136149;27;20119;-41
2023/01/14 02:29:05;;;;;;;21.95;3.65;;;7.00;99.90;;;;;;5137173;27;20047;-41
2023/01/14 02:31:43;;;;;;;20.30;3.78;;;7.00;1.00;;;;;;5118450;27;20477;-42
2023/01/14 02:34:19;;;;;;;21.38;3.55;;;6.90;99.90;;;;;;5118394;27;20047;-42
2023/01/14 02:37:04;;;;;;;25.73;4.70;;;6.90;99.90;;;;;;5136507;27;20043;-41
2023/01/14 02:39:41;;;;;;;24.10;3.80;;;6.80;99.90;;;;;;5136145;27;20047;-41
2023/01/14 02:45:15;;;;;;;20.00;3.33;;;6.70;99.90;;;;;;5106501;27;20110;-41
2023/01/14 02:47:42;;;;;;;24.98;4.70;;;6.70;99.90;;;;;;5135968;27;20047;-42
2023/01/14 02:50:10;;;;;;;27.48;3.70;;;6.60;99.90;;;;;;5135832;27;20047;-41
2023/01/14 02:52:36;;;;;;;17.02;2.90;;;6.50;1.00;;;;;;5135792;27;20477;-41
2023/01/14 02:55:02;;;;;;;27.50;3.85;;;6.40;1.00;;;;;;5135820;27;20100;-42
2023/01/14 02:58:10;;;;;;;29.38;4.82;;;6.30;1.00;;;;;;5118372;27;20480;-41
2023/01/14 03:00:59;;;;;;;22.13;3.60;;;6.40;99.90;;;;;;5078106;27;20413;-41
2023/01/14 03:03:40;;;;;;;29.35;3.40;;;6.30;1.00;;;;;;5117844;27;20103;-41
2023/01/14 03:06:09;;;;;;;21.65;3.55;;;6.40;1.00;;;;;;5117770;27;20055;-41
2023/01/14 03:08:50;;;;;;;21.40;3.53;;;6.20;1.00;;;;;;5136333;27;20047;-41
2023/01/14 03:11:16;;;;;;;19.00;4.05;;;6.10;1.00;;;;;;5135164;27;20126;-42
2023/01/14 03:13:49;;;;;;;29.13;4.75;;;6.10;1.00;;;;;;5135668;27;20130;-41
2023/01/14 03:16:19;;;;;;;;;;;6.20;1.00;;;;;;5135837;27;20058;-41
2023/01/14 03:18:56;;;;;;;21.38;3.53;;;6.20;1.00;;;;;;5135006;27;20319;-41
2023/01/14 03:21:26;;;;;;;22.48;3.70;;;6.30;1.00;;;;;;5135512;27;20099;-41
2023/01/14 03:24:03;;;;;;;18.33;3.70;;;6.40;1.00;;;;;;5135476;27;20054;-41
2023/01/14 03:26:32;;;;;;;22.00;4.05;;;6.30;1.00;;;;;;5135462;27;20047;-41
2023/01/14 03:29:01;;;;;;;23.48;3.60;;;6.30;1.00;;;;;;5135149;27;20082;-41
2023/01/14 03:31:31;;;;;;;23.85;3.40;;;6.30;1.00;;;;;;5135118;27;20085;-41
2023/01/14 03:34:05;;;;;;;17.55;2.58;;;6.20;1.00;;;;;;5116987;27;20118;-42
2023/01/14 03:36:34;;;;;;;18.27;3.03;;;6.30;1.00;;;;;;5135647;27;20054;-41
2023/01/14 03:39:13;;;;;;;16.23;3.13;;;6.20;1.00;;;;;;5115848;27;20046;-41
2023/01/14 03:44:37;;;;;;;23.67;3.20;;;6.10;1.00;;;;;;5135754;27;20129;-41
2023/01/14 03:47:03;;;;;;;30.17;4.10;;;6.00;99.90;;;;;;5100717;27;20134;-42
2023/01/14 03:49:29;;;;;;;24.00;3.70;;;5.90;1.00;;;;;;5117084;28;20043;-41
2023/01/14 03:52:19;;;;;;;27.75;3.83;;;6.00;1.00;;;;;;5134769;27;20050;-41
2023/01/14 03:54:55;;;;;;;22.80;3.88;;;5.90;1.00;;;;;;5134850;27;20119;-41
2023/01/14 03:57:35;;;;;;;27.60;3.53;;;5.80;1.00;;;;;;5134730;27;20492;-41
2023/01/14 04:00:07;;;;;;;25.60;3.88;;;5.80;1.00;;;;;;5134655;27;20538;-41
2023/01/14 04:02:34;;;;;;;23.67;3.65;;;5.80;1.00;;;;;;5135071;28;20115;-41
2023/01/14 04:05:01;;;;;;;28.70;4.32;;;5.70;1.00;;;;;;5135236;28;20377;-41
2023/01/14 04:07:27;;;;;;;20.15;2.55;;;5.70;1.00;;;;;;5117433;28;20099;-41
2023/01/14 04:09:52;;;;;;;25.20;4.38;;;5.60;1.00;;;;;;5134926;28;20391;-41
2023/01/14 04:12:18;;;;;;;27.40;3.83;;;5.50;1.00;;;;;;5134604;28;20557;-41
2023/01/14 04:17:28;;;;;;;21.15;4.10;;;5.40;1.00;;;;;;5134541;28;20043;-41
2023/01/14 04:19:54;;;;;;;24.83;3.47;;;5.30;5.40;;;;;;5134997;28;20050;-41
2023/01/14 04:22:19;;;;;;;30.83;4.45;;;5.30;8.90;;;;;;5116524;28;20378;-41
2023/01/14 04:24:45;;;;;;;24.33;3.28;;;5.20;31.80;;;;;;5134525;28;20070;-41
2023/01/14 04:27:11;;;;;;;29.20;4.43;;;5.10;62.20;;;;;;5134959;28;20480;-41
2023/01/14 04:29:36;;;;;;;26.63;3.95;;;5.10;95.40;;;;;;5134408;28;20130;-41
2023/01/14 04:32:02;;;;;;;25.35;3.97;;;5.00;72.40;;;;;;5134660;28;20039;-41
2023/01/14 04:34:28;;;;;;;31.30;4.57;;;5.00;99.90;;;;;;5134404;28;20516;-41
2023/01/14 04:36:54;;;;;;;28.00;3.10;;;5.00;99.90;;;;;;5134382;28;20043;-41
2023/01/14 04:39:19;;;;;;;25.05;3.85;;;5.10;99.90;;;;;;5134009;28;20429;-41
2023/01/14 04:44:31;;;;;;;23.23;2.92;;;5.10;99.90;;;;;;5134828;28;20051;-41
2023/01/14 04:46:56;;;;;;;30.92;4.53;;;5.10;99.90;;;;;;5134833;28;20061;-41
2023/01/14 04:49:22;;;;;;;26.25;3.75;;;5.10;99.90;;;;;;5134847;27;20489;-41
2023/01/14 04:51:51;;;;;;;23.40;3.75;;;5.10;99.90;;;;;;5120166;27;20100;-41
2023/01/14 04:54:16;;;;;;;33.33;4.50;;;5.00;99.90;;;;;;5120530;27;20046;-41
2023/01/14 04:56:42;;;;;;;26.20;5.13;;;5.00;99.90;;;;;;5120356;27;20039;-41
2023/01/14 04:59:08;;;;;;;28.77;4.78;;;5.00;99.90;;;;;;5120748;27;20055;-41
2023/01/14 05:01:33;;;;;;;24.40;3.92;;;5.10;99.90;;;;;;5119685;27;20130;-41
2023/01/14 05:03:59;;;;;;;24.00;3.72;;;5.00;99.90;;;;;;5119708;27;20043;-41
2023/01/14 05:06:27;;;;;;;22.27;3.17;;;5.10;99.90;;;;;;5138193;27;20049;-41
2023/01/14 05:08:53;;;;;;;22.05;3.35;;;5.10;99.90;;;;;;5119744;27;20059;-41
2023/01/14 05:11:18;;;;;;;27.00;3.30;;;5.10;99.90;;;;;;5102753;27;20050;-41
2023/01/14 05:13:44;;;;;;;23.42;2.92;;;5.10;99.90;;;;;;5137790;27;20039;-41
2023/01/14 05:16:10;;;;;;;29.60;5.03;;;5.10;99.90;;;;;;5137725;27;20043;-41
2023/01/14 05:18:36;;;;;;;28.50;3.78;;;5.20;99.90;;;;;;5137640;27;20039;-41
2023/01/14 05:21:01;;;;;;;26.95;3.53;;;5.10;99.90;;;;;;5119279;27;20097;-41
2023/01/14 05:23:27;;;;;;;28.55;4.50;;;5.30;99.90;;;;;;5137609;27;20047;-41
2023/01/14 05:25:53;;;;;;;25.50;4.60;;;5.20;99.90;;;;;;5138041;27;20081;-41
2023/01/14 05:28:20;;;;;;;25.27;2.95;;;5.20;99.90;;;;;;5137479;27;20043;-41
2023/01/14 05:30:46;;;;;;;20.05;3.42;;;5.10;99.90;;;;;;5137755;27;20070;-41
2023/01/14 05:33:12;;;;;;;29.85;5.53;;;5.10;99.90;;;;;;5119101;27;20127;-41
2023/01/14 05:35:38;;;;;;;21.15;3.83;;;5.20;99.90;;;;;;5118999;27;20043;-41
2023/01/14 05:38:06;;;;;;;18.92;4.10;;;5.20;99.90;;;;;;5137307;27;20556;-41
2023/01/14 05:40:32;;;;;;;28.52;3.88;;;5.30;99.90;;;;;;5118706;27;20039;-41
2023/01/14 05:45:49;;;;;;;24.83;3.83;;;5.30;99.90;;;;;;5119348;27;20111;-41
2023/01/14 05:48:21;;;;;;;21.55;3.65;;;5.30;99.90;;;;;;5119386;27;20092;-41
2023/01/14 05:50:54;;;;;;;32.55;4.93;;;5.30;99.90;;;;;;5137098;27;20121;-41
2023/01/14 05:53:21;;;;;;;27.48;4.85;;;5.40;99.90;;;;;;5119288;27;20054;-41
2023/01/14 05:55:47;;;;;;;20.50;3.97;;;5.40;99.90;;;;;;5136984;27;20042;-41
2023/01/14 06:07:23;;;;;;;27.98;3.88;;;5.50;99.90;;;;;;5137353;27;20043;-41
2023/01/14 06:09:49;;;;;;;26.25;4.60;;;5.50;99.90;;;;;;5135460;27;20480;-41
2023/01/14 06:12:33;;;;;;;30.60;4.47;;;5.40;99.90;;;;;;5118507;27;20057;-41
2023/01/14 06:14:59;;;;;;;29.75;4.88;;;5.40;99.90;;;;;;5117554;27;20086;-41
2023/01/14 06:17:34;;;;;;;22.35;3.88;;;5.40;99.90;;;;;;5136823;27;20135;-42
2023/01/14 06:20:00;;;;;;;26.88;3.92;;;5.40;99.90;;;;;;5135816;27;20043;-41
2023/01/14 06:22:25;;;;;;;29.55;5.75;;;5.40;99.90;;;;;;5133683;27;20053;-41
2023/01/14 06:24:52;;;;;;;28.98;6.03;;;5.40;99.90;;;;;;5136381;27;20130;-41
2023/01/14 06:27:17;;;;;;;28.35;6.00;;;5.40;99.90;;;;;;5136248;27;20055;-41
2023/01/14 06:29:43;;;;;;;25.50;5.28;;;5.40;99.90;;;;;;5135451;27;20123;-42
2023/01/14 06:32:08;;;;;;;34.58;6.15;;;5.40;99.90;;;;;;5136238;27;20031;-41
2023/01/14 06:34:34;;;;;;;27.33;6.63;;;5.40;99.90;;;;;;5117856;27;20056;-41
2023/01/14 06:37:00;;;;;;;26.58;5.38;;;5.40;99.90;;;;;;5135104;27;20043;-41
2023/01/14 06:39:26;;;;;;;28.42;4.97;;;5.40;99.90;;;;;;5136275;27;20126;-41
2023/01/14 06:41:51;;;;;;;28.30;6.45;;;5.40;99.90;;;;;;5136312;27;20055;-41
2023/01/14 06:44:17;;;;;;;29.00;5.35;;;5.40;99.90;;;;;;5134585;27;20481;-42
2023/01/14 06:46:43;;;;;;;24.48;5.05;;;5.40;99.90;;;;;;5134517;27;20047;-41
2023/01/14 06:49:08;;;;;;;30.15;6.78;;;5.40;99.90;;;;;;5117685;27;20093;-41
2023/01/14 06:51:34;;;;;;;32.75;5.95;;;5.40;99.90;;;;;;5135843;27;20115;-41
2023/01/14 06:54:00;;;;;;;31.38;5.63;;;5.40;99.90;;;;;;5136599;27;20050;-41
2023/01/14 06:56:26;;;;;;;36.20;7.85;;;5.30;99.90;;;;;;5136309;27;20471;-41
2023/01/14 06:58:51;;;;;;;33.40;6.85;;;5.40;99.90;;;;;;5134976;27;20042;-41
2023/01/14 07:01:19;;;;;;;35.67;6.22;;;5.40;99.90;;;;;;5117384;27;20051;-42
2023/01/14 07:03:45;;;;;;;34.75;7.47;;;5.40;99.90;;;;;;5117476;27;20054;-41
2023/01/14 07:06:11;;;;;;;33.85;7.03;;;5.40;99.90;;;;;;5135605;27;20043;-41
2023/01/14 07:08:37;;;;;;;31.98;5.75;;;5.40;99.90;;;;;;5135524;27;20507;-41
2023/01/14 07:11:03;;;;;;;35.45;5.63;;;5.40;99.90;;;;;;5135508;27;20046;-41
2023/01/14 07:13:31;;;;;;;44.45;8.23;;;5.40;99.90;;;;;;5113217;27;20487;-41
2023/01/14 07:15:57;;;;;;;36.13;8.68;;;5.40;99.90;;;;;;5106043;27;20095;-41
2023/01/14 07:18:23;;;;;;;37.63;8.02;;;5.50;99.90;;;;;;5129882;27;20039;-42
2023/01/14 07:20:48;;;;;;;31.17;7.22;;;5.50;99.90;;;;;;5100417;27;20050;-41
2023/01/14 07:23:14;;;;;;;40.10;7.95;;;5.50;99.90;;;;;;5135030;27;20122;-42
2023/01/14 07:25:40;;;;;;;37.28;7.30;;;5.50;99.90;;;;;;5135084;27;20039;-41
2023/01/14 07:28:06;;;;;;;36.88;7.45;;;5.60;99.90;;;;;;5135156;27;20039;-41
2023/01/14 07:30:32;;;;;;;32.50;6.68;;;5.50;99.90;;;;;;5133958;27;20508;-41
2023/01/14 07:32:59;;;;;;;32.97;6.05;;;5.50;99.90;;;;;;5135055;27;20090;-42
2023/01/14 07:35:26;;;;;;;40.05;7.57;;;5.50;99.90;;;;;;5132852;27;20107;-41
2023/01/14 07:37:56;;;;;;;37.90;9.35;;;5.50;99.90;;;;;;5098863;27;20130;-41
2023/01/14 07:40:23;;;;;;;51.17;8.05;;;5.50;99.90;;;;;;5135159;27;20039;-41
2023/01/14 07:42:57;;;;;;;34.00;6.25;;;5.60;99.90;;;;;;5115296;27;20050;-42
2023/01/14 07:45:25;;;;;;;39.08;8.15;;;5.50;99.90;;;;;;5131819;27;20043;-41
2023/01/14 07:47:55;;;;;;;38.22;8.20;;;5.60;99.90;;;;;;5131784;27;20136;-42
2023/01/14 07:50:22;;;;;;;35.85;6.07;;;5.60;99.90;;;;;;5115622;28;20043;-41
2023/01/14 07:52:56;;;;;;;36.17;6.72;;;5.50;99.90;;;;;;5116995;28;20497;-41
2023/01/14 07:55:23;;;;;;;37.60;6.70;;;5.60;99.90;;;;;;5113552;28;20123;-41
2023/01/14 07:57:49;;;;;;;34.10;7.88;;;5.60;99.90;;;;;;5114157;28;20036;-42
2023/01/14 08:00:15;;;;;;;45.33;7.50;;;5.60;99.90;;;;;;5123079;27;20046;-41
2023/01/14 08:02:41;;;;;;;35.03;7.57;;;5.60;99.90;;;;;;5116455;28;20133;-41
2023/01/14 08:05:07;;;;;;;34.95;7.15;;;5.70;99.90;;;;;;5134798;28;20449;-41
2023/01/14 08:07:33;;;;;;;34.25;8.23;;;5.70;99.90;;;;;;5116532;28;20400;-41
2023/01/14 08:09:59;;;;;;;36.05;8.85;;;5.80;99.90;;;;;;5134554;28;20046;-40
2023/01/14 08:12:24;;;;;;;39.65;8.20;;;5.70;99.90;;;;;;5135322;28;20122;-41
2023/01/14 08:14:50;;;;;;;33.90;8.00;;;5.70;99.90;;;;;;5133578;28;20047;-41
2023/01/14 08:17:16;;;;;;;53.50;9.23;;;5.70;99.90;;;;;;5117228;28;20365;-40
2023/01/14 08:19:43;;;;;;;28.17;6.95;;;5.70;99.90;;;;;;5134386;28;20047;-40
2023/01/14 08:22:09;;;;;;;32.22;6.03;;;5.70;99.90;;;;;;5133066;28;20484;-40
2023/01/14 08:24:35;;;;;;;40.80;8.98;;;5.70;99.90;;;;;;5100318;27;20112;-38
2023/01/14 08:27:01;;;;;;;39.92;8.82;;;5.70;99.90;;;;;;5120123;27;20043;-38
2023/01/14 08:29:27;;;;;;;40.90;7.43;;;5.70;99.90;;;;;;5137992;27;20134;-40
2023/01/14 08:31:54;;;;;;;42.17;9.07;;;5.70;99.90;;;;;;5138488;27;20050;-41
2023/01/14 08:34:22;;;;;;;37.13;7.05;;;5.60;99.90;;;;;;5121160;27;20047;-40
2023/01/14 08:36:48;;;;;;;41.40;8.48;;;5.70;99.90;;;;;;5120592;27;20047;-42
2023/01/14 08:39:14;;;;;;;41.97;7.68;;;5.60;99.90;;;;;;5120184;27;20109;-41
2023/01/14 08:41:40;;;;;;;44.05;8.68;;;5.70;99.90;;;;;;5119700;27;20035;-42
2023/01/14 08:44:06;;;;;;;35.38;6.05;;;5.70;99.90;;;;;;5118744;27;20100;-43
2023/01/14 08:46:32;;;;;;;40.95;6.43;;;5.70;99.90;;;;;;5120380;27;20055;-43
2023/01/14 08:48:58;;;;;;;37.70;7.35;;;5.70;99.90;;;;;;5119714;27;20385;-43
2023/01/14 08:51:28;;;;;;;45.97;7.80;;;5.70;99.90;;;;;;5103302;27;20049;-44
2023/01/14 08:53:55;;;;;;;33.53;6.03;;;5.70;99.90;;;;;;5104281;27;20100;-43
2023/01/14 08:56:21;;;;;;;35.47;6.20;;;5.70;99.90;;;;;;5136986;27;20047;-44
2023/01/14 08:58:47;;;;;;;35.88;6.85;;;5.70;99.90;;;;;;5138151;27;20047;-44
2023/01/14 09:01:13;;;;;;;29.38;5.75;;;5.60;99.90;;;;;;5136833;27;20091;-44
2023/01/14 09:03:40;;;;;;;36.25;6.15;;;5.70;99.90;;;;;;5136569;27;20382;-44
2023/01/14 09:06:09;;;;;;;27.00;6.63;;;5.60;99.90;;;;;;5119909;27;20191;-44
2023/01/14 09:17:20;;;;;;;37.30;5.38;;;5.70;99.90;;;;;;5135666;27;20104;-44
2023/01/14 09:19:50;;;;;;;30.27;5.20;;;5.70;99.90;;;;;;5117231;28;20047;-44
2023/01/14 09:22:20;;;;;;;37.70;5.28;;;5.60;99.90;;;;;;5116974;28;20043;-44
2023/01/14 09:24:46;;;;;;;30.52;4.68;;;5.60;99.90;;;;;;5117091;28;20043;-44
2023/01/14 09:27:12;;;;;;;32.65;4.38;;;5.60;99.90;;;;;;5101400;27;20130;-44
2023/01/14 09:29:38;;;;;;;34.05;5.22;;;5.60;99.90;;;;;;5137435;27;20370;-43
2023/01/14 09:32:09;;;;;;;33.97;5.18;;;5.60;99.90;;;;;;5137116;27;20041;-44
2023/01/14 09:34:34;;;;;;;27.55;4.30;;;5.60;99.90;;;;;;5138296;27;20090;-43
2023/01/14 09:37:00;;;;;;;24.40;5.60;;;5.60;99.90;;;;;;5133488;27;20074;-43
2023/01/14 09:39:26;;;;;;;23.60;4.88;;;5.60;99.90;;;;;;5135314;27;20531;-42
2023/01/14 09:41:59;;;;;;;33.35;5.65;;;5.50;99.90;;;;;;5135473;27;20189;-43
2023/01/14 09:44:25;;;;;;;31.35;5.05;;;5.60;99.90;;;;;;5133389;27;20043;-43
2023/01/14 09:46:52;;;;;;;35.92;5.18;;;5.60;99.90;;;;;;5134954;27;20051;-44
2023/01/14 09:49:25;;;;;;;24.90;4.43;;;5.60;99.90;;;;;;5136158;27;20412;-43
2023/01/14 09:52:16;;;;;;;16.55;3.50;;;5.60;99.90;;;;;;5119712;27;20050;-43
2023/01/14 09:55:17;;;;;;;25.50;5.28;;;5.60;99.90;;;;;;5136816;27;20047;-43
2023/01/14 09:58:14;;;;;;;27.92;5.15;;;5.70;99.90;;;;;;5135962;27;20043;-43
2023/01/14 10:01:06;;;;;;;21.08;4.25;;;5.70;99.90;;;;;;5136710;27;20035;-43
2023/01/14 10:03:41;;;;;;;34.83;4.20;;;5.70;99.90;;;;;;5136484;27;20524;-42
2023/01/14 10:06:16;;;;;;;30.00;5.38;;;5.70;99.90;;;;;;5134885;27;20072;-43
2023/01/14 10:08:53;;;;;;;22.77;4.85;;;5.70;99.90;;;;;;5135377;27;20039;-43
2023/01/14 10:11:21;;;;;;;20.38;5.25;;;5.70;99.90;;;;;;5137415;27;20039;-42
2023/01/14 10:14:02;;;;;;;20.42;3.97;;;5.80;99.90;;;;;;5134867;27;20100;-44
2023/01/14 10:16:34;;;;;;;21.52;3.55;;;5.80;99.90;;;;;;5133730;27;20053;-42
2023/01/14 10:19:11;;;;;;;15.00;3.50;;;5.80;99.90;;;;;;5136633;27;20039;-41
2023/01/14 10:21:43;;;;;;;13.30;3.40;;;5.80;99.90;;;;;;5119011;27;20050;-41
2023/01/14 10:24:16;;;;;;;21.33;5.68;;;5.80;99.90;;;;;;5135398;27;20204;-41
2023/01/14 10:26:45;;;;;;;12.95;3.42;;;5.90;99.90;;;;;;5136345;27;20050;-41
2023/01/14 10:29:20;;;;;;;21.88;4.90;;;6.00;99.90;;;;;;5135246;27;20118;-42
2023/01/14 10:31:53;;;;;;;13.05;3.60;;;6.00;99.90;;;;;;5136348;27;20049;-41
2023/01/14 10:34:26;;;;;;;9.90;2.78;;;6.00;99.90;;;;;;5136261;27;20039;-41
2023/01/14 10:36:52;;;;;;;8.52;2.40;;;6.10;99.90;;;;;;5136820;27;20039;-41
2023/01/14 10:39:18;;;;;;;10.68;2.55;;;6.20;99.90;;;;;;5135128;27;20047;-41
2023/01/14 10:41:49;;;;;;;7.55;2.83;;;6.20;99.90;;;;;;5117588;27;20532;-40
2023/01/14 10:44:26;;;;;;;8.77;1.67;;;6.30;99.90;;;;;;5136690;27;20126;-40
2023/01/14 10:47:10;;;;;;;10.60;2.17;;;6.30;99.90;;;;;;5135825;27;20126;-41
2023/01/14 10:49:39;;;;;;;;;;;6.40;99.90;;;;;;5118054;27;20057;-40
2023/01/14 10:52:20;;;;;;;5.18;1.40;;;6.50;99.90;;;;;;5136264;27;20056;-40
2023/01/14 10:54:57;;;;;;;5.45;1.45;;;6.50;99.90;;;;;;5134678;27;20043;-39
2023/01/14 10:57:24;;;;;;;10.07;3.20;;;6.60;99.90;;;;;;5134527;27;20496;-39
2023/01/14 10:59:52;;;;;;;8.57;1.85;;;6.70;99.90;;;;;;5135757;27;20099;-40
2023/01/14 11:02:29;;;;;;;5.97;1.75;;;6.70;99.90;;;;;;5100949;27;20059;-41
2023/01/14 11:04:55;;;;;;;7.85;1.85;;;6.70;99.90;;;;;;5135897;27;20051;-41
2023/01/14 11:07:37;;;;;;;7.85;1.80;;;6.70;99.90;;;;;;5134093;27;20526;-42
2023/01/14 11:10:24;;;;;;;7.95;2.00;;;6.70;99.90;;;;;;5115792;27;20039;-42
2023/01/14 11:12:55;;;;;;;5.43;1.60;;;6.70;99.90;;;;;;5114992;28;20126;-41
2023/01/14 11:15:36;;;;;;;6.57;1.77;;;6.60;99.90;;;;;;5114916;28;20104;-42
2023/01/14 11:18:24;;;;;;;6.53;1.73;;;6.60;99.90;;;;;;5114846;28;20477;-42
2023/01/14 11:21:07;;;;;;;7.47;1.50;;;6.60;99.90;;;;;;5114344;28;20496;-41
2023/01/14 11:23:38;;;;;;;7.45;1.63;;;6.60;99.90;;;;;;5115325;28;20054;-42
2023/01/14 11:26:10;;;;;;;6.95;2.22;;;6.60;99.90;;;;;;5133896;27;20055;-43
2023/01/14 11:28:41;;;;;;;7.05;2.35;;;6.60;99.90;;;;;;5134136;27;20489;-42
2023/01/14 11:31:07;;;;;;;4.78;2.45;;;6.60;99.90;;;;;;5135829;27;20043;-42
2023/01/14 11:33:34;;;;;;;7.75;1.90;;;6.60;99.90;;;;;;5135683;27;20043;-42
2023/01/14 11:36:02;;;;;;;8.98;1.95;;;6.60;99.90;;;;;;5135060;27;20052;-42
2023/01/14 11:38:28;;;;;;;8.68;1.98;;;6.60;99.90;;;;;;5117274;27;20102;-41
2023/01/14 11:44:00;;;;;;;9.45;1.85;;;6.60;99.90;;;;;;5114831;28;20393;-42
2023/01/14 11:46:25;;;;;;;;;;;6.60;99.90;;;;;;5114844;28;20059;-42
2023/01/14 11:49:17;;;;;;;5.18;1.35;;;6.60;99.90;;;;;;5114305;28;19927;-41
2023/01/14 11:52:05;;;;;;;6.40;1.88;;;6.60;99.90;;;;;;5096978;28;20078;-42
2023/01/14 11:54:40;;;;;;;5.90;1.63;;;6.60;99.90;;;;;;5114314;28;20043;-42
2023/01/14 11:57:15;;;;;;;3.38;1.58;;;6.60;99.90;;;;;;5126430;27;20057;-42
2023/01/14 11:59:41;;;;;;;7.57;2.15;;;6.60;99.90;;;;;;5134023;27;20058;-42
2023/01/14 12:02:25;;;;;;;5.53;1.90;;;6.70;99.90;;;;;;5099311;27;20095;-42
2023/01/14 12:05:09;;;;;;;3.80;1.60;;;6.70;99.90;;;;;;5133537;28;20391;-43
2023/01/14 12:07:36;;;;;;;3.92;1.63;;;6.70;99.90;;;;;;5117529;28;20054;-43
2023/01/14 12:10:13;;;;;;;3.58;1.65;;;6.60;99.90;;;;;;5134625;28;20439;-42
2023/01/14 12:18:53;;;;;;;6.05;1.65;;;6.70;99.90;;;;;;5134607;28;20051;-42
2023/01/14 12:21:25;;;;;;;4.55;2.08;;;6.80;99.90;;;;;;5135057;28;20381;-42
2023/01/14 12:24:06;;;;;;;6.55;2.30;;;6.80;99.90;;;;;;5117309;28;20054;-43
2023/01/14 12:26:40;;;;;;;4.43;1.50;;;6.80;99.90;;;;;;5133311;27;20050;-42
2023/01/14 12:29:14;;;;;;;5.10;1.77;;;6.90;99.90;;;;;;5134521;28;20622;-42
2023/01/14 12:31:43;;;;;;;3.58;1.55;;;7.00;99.90;;;;;;5135050;28;20040;-43
2023/01/14 12:34:24;;;;;;;6.03;1.90;;;7.00;99.90;;;;;;5134364;28;20047;-43
2023/01/14 12:37:16;;;;;;;8.55;1.55;;;7.00;99.90;;;;;;5116869;28;20054;-43
2023/01/14 12:46:05;;;;;;;6.60;2.05;;;7.10;99.90;;;;;;5134015;28;20563;-42
2023/01/14 12:48:31;;;;;;;4.32;1.65;;;7.20;99.90;;;;;;5071833;28;20129;-42
2023/01/14 12:51:00;;;;;;;3.33;1.90;;;7.10;99.90;;;;;;5134295;28;20046;-43
2023/01/14 12:53:34;;;;;;;6.00;2.00;;;7.40;99.90;;;;;;5132742;28;20407;-42
2023/01/14 12:56:05;;;;;;;5.80;2.15;;;7.50;99.90;;;;;;5133302;28;20495;-42
2023/01/14 12:58:35;;;;;;;6.90;2.38;;;7.40;99.90;;;;;;5132926;28;20047;-42
2023/01/14 13:01:08;;;;;;;6.55;3.80;;;7.30;99.90;;;;;;5114454;28;20393;-42
2023/01/14 13:04:00;;;;;;;;;;;7.50;99.90;;;;;;5096278;28;20039;-42
2023/01/14 13:06:35;;;;;;;4.32;2.17;;;7.50;99.90;;;;;;5125199;28;19919;-40
2023/01/14 13:09:04;;;;;;;3.72;2.17;;;7.60;99.90;;;;;;5134092;28;20072;-41
2023/01/14 13:11:59;;;;;;;4.75;2.17;;;7.70;99.90;;;;;;5117121;27;20438;-41
2023/01/14 13:14:39;;;;;;;5.50;2.30;;;7.70;99.90;;;;;;5118795;27;20150;-41
2023/01/14 13:17:31;;;;;;;5.05;1.73;;;7.80;99.90;;;;;;5134777;27;20039;-41
2023/01/14 13:19:58;;;;;;;4.28;2.20;;;7.80;99.90;;;;;;5119648;27;20091;-41
2023/01/14 13:23:03;;;;;;;5.70;2.55;;;7.90;99.90;;;;;;5119266;27;20082;-41
2023/01/14 13:25:37;;;;;;;5.07;2.05;;;8.00;99.90;;;;;;5023995;28;20534;-41
2023/01/14 13:28:12;;;;;;;3.92;1.92;;;8.00;99.90;;;;;;5051529;28;20399;-41
2023/01/14 13:30:51;;;;;;;4.05;2.67;;;8.10;99.90;;;;;;5113109;27;20381;-41
2023/01/14 13:33:27;;;;;;;3.05;1.38;;;8.20;99.90;;;;;;5117046;27;20061;-40
2023/01/14 13:36:11;;;;;;;5.00;2.25;;;8.20;99.90;;;;;;5102626;27;20049;-41
2023/01/14 13:39:01;;;;;;;2.53;2.05;;;8.30;99.90;;;;;;5116033;28;20060;-41
2023/01/14 13:41:37;;;;;;;3.78;1.65;;;8.30;99.90;;;;;;5115811;27;20114;-41
2023/01/14 13:44:04;;;;;;;2.95;1.75;;;8.30;99.90;;;;;;5101907;27;20051;-40
2023/01/14 13:46:32;;;;;;;2.72;1.60;;;8.40;99.90;;;;;;5137233;27;20046;-41
2023/01/14 13:49:01;;;;;;;2.95;1.60;;;8.40;99.90;;;;;;5100867;27;20039;-41
2023/01/14 13:51:44;;;;;;;2.40;1.70;;;8.50;99.90;;;;;;5137113;27;20050;-42
2023/01/14 13:54:10;;;;;;;1.95;1.10;;;8.60;99.90;;;;;;5136348;27;20043;-41
2023/01/14 13:56:48;;;;;;;1.70;0.90;;;8.60;99.90;;;;;;5117793;27;20403;-41
2023/01/14 13:59:38;;;;;;;1.02;0.55;;;8.60;99.90;;;;;;5135875;27;20035;-41